createdAt,value
2023-04-26T00:01:57.967Z,10.71
2023-04-26T00:06:59.465Z,10.70
2023-04-26T00:12:01.051Z,10.81
2023-04-26T00:17:02.583Z,10.88
2023-04-26T00:22:04.165Z,11.09
2023-04-26T00:27:05.588Z,11.07
2023-04-26T00:32:07.172Z,11.06
2023-04-26T00:37:08.627Z,10.93
2023-04-26T00:42:10.072Z,10.73
2023-04-26T00:47:11.528Z,10.56
2023-04-26T00:52:13.504Z,10.64
2023-04-26T00:57:15.552Z,10.49
2023-04-26T01:02:17.265Z,10.44
2023-04-26T01:07:18.789Z,10.53
2023-04-26T01:12:21.406Z,10.57
2023-04-26T01:17:23.546Z,10.54
2023-04-26T01:22:25.058Z,10.57
2023-04-26T01:27:26.565Z,10.58
2023-04-26T01:32:28.030Z,10.64
2023-04-26T01:37:31.842Z,10.74
2023-04-26T01:42:34.393Z,10.76
2023-04-26T01:47:36.034Z,10.70
2023-04-26T01:52:37.580Z,10.63
2023-04-26T01:57:39.098Z,10.63
2023-04-26T02:02:41.115Z,10.37
2023-04-26T02:07:42.654Z,10.54
2023-04-26T02:12:44.133Z,10.64
2023-04-26T02:17:45.574Z,10.55
2023-04-26T02:22:47.095Z,10.51
2023-04-26T02:27:50.445Z,10.38
2023-04-26T02:32:54.481Z,10.30
2023-04-26T02:37:55.977Z,10.36
2023-04-26T02:42:57.768Z,10.18
2023-04-26T02:47:59.356Z,10.12
2023-04-26T02:53:00.905Z,10.02
2023-04-26T02:58:03.885Z,9.83
2023-04-26T03:03:05.537Z,9.60
2023-04-26T03:08:07.366Z,9.84
2023-04-26T03:13:08.884Z,10.01
2023-04-26T03:18:10.501Z,10.07
2023-04-26T03:23:12.828Z,9.80
2023-04-26T03:28:14.335Z,9.69
2023-04-26T03:33:16.891Z,9.49
2023-04-26T03:38:18.430Z,9.21
2023-04-26T03:43:20.301Z,9.26
2023-04-26T03:48:21.781Z,9.09
2023-04-26T03:53:23.209Z,8.98
2023-04-26T03:58:25.901Z,9.05
2023-04-26T04:03:27.882Z,8.95
2023-04-26T04:08:29.972Z,8.93
2023-04-26T04:13:31.532Z,9.05
2023-04-26T04:18:33.170Z,9.00
2023-04-26T04:23:34.723Z,8.93
2023-04-26T04:28:41.667Z,9.03
2023-04-26T04:33:43.453Z,9.06
2023-04-26T04:38:45.971Z,9.23
2023-04-26T04:43:50.663Z,9.23
2023-04-26T04:48:52.430Z,9.19
2023-04-26T04:53:57.577Z,9.17
2023-04-26T04:58:59.311Z,9.19
2023-04-26T05:04:01.238Z,9.17
2023-04-26T05:09:03.463Z,9.10
2023-04-26T05:14:04.982Z,9.23
2023-04-26T05:19:09.219Z,9.60
2023-04-26T05:24:11.670Z,9.74
2023-04-26T05:29:13.342Z,9.96
2023-04-26T05:34:26.784Z,10.16
2023-04-26T05:39:31.991Z,10.09
2023-04-26T05:44:33.811Z,10.29
2023-04-26T05:49:36.850Z,10.30
2023-04-26T05:54:38.929Z,10.26
2023-04-26T05:59:40.846Z,10.29
2023-04-26T06:04:42.606Z,10.50
2023-04-26T06:09:50.929Z,10.52
2023-04-26T06:14:52.579Z,10.54
2023-04-26T06:19:56.429Z,10.74
2023-04-26T06:24:57.945Z,10.87
2023-04-26T06:30:01.751Z,11.02
2023-04-26T06:35:06.046Z,11.31
2023-04-26T06:40:08.651Z,11.33
2023-04-26T06:45:10.912Z,11.55
2023-04-26T06:50:12.707Z,11.83
2023-04-26T06:55:14.165Z,11.72
2023-04-26T07:00:16.022Z,11.91
2023-04-26T07:05:17.689Z,12.26
2023-04-26T07:10:19.522Z,12.50
2023-04-26T07:15:21.120Z,12.41
2023-04-26T07:20:22.843Z,12.54
2023-04-26T07:25:24.525Z,12.75
2023-04-26T07:30:26.156Z,12.82
2023-04-26T07:35:27.739Z,13.08
2023-04-26T07:40:29.226Z,13.20
2023-04-26T07:45:32.724Z,13.37
2023-04-26T07:50:34.264Z,13.59
2023-04-26T07:55:35.730Z,13.76
2023-04-26T08:00:37.153Z,13.97
2023-04-26T08:05:38.834Z,14.24
2023-04-26T08:10:41.029Z,14.51
2023-04-26T08:15:42.584Z,14.44
2023-04-26T08:20:44.045Z,14.69
2023-04-26T08:25:47.713Z,14.75
2023-04-26T08:30:49.421Z,14.85
2023-04-26T08:35:50.967Z,15.00
2023-04-26T08:40:55.760Z,15.17
2023-04-26T08:45:59.439Z,14.79
2023-04-26T08:51:01.767Z,14.92
2023-04-26T08:56:04.768Z,15.15
2023-04-26T09:01:06.868Z,15.14
2023-04-26T09:06:08.773Z,15.04
2023-04-26T09:11:10.285Z,15.45
2023-04-26T09:16:11.818Z,15.60
2023-04-26T09:21:13.697Z,15.67
2023-04-26T09:26:19.367Z,15.77
2023-04-26T09:31:39.591Z,15.73
2023-04-26T09:36:47.832Z,15.88
2023-04-26T09:41:49.288Z,15.67
2023-04-26T09:47:07.870Z,15.69
2023-04-26T09:52:09.407Z,15.87
2023-04-26T09:57:12.684Z,16.38
2023-04-26T10:02:21.141Z,16.49
2023-04-26T10:07:25.556Z,16.49
2023-04-26T10:12:27.294Z,16.62
2023-04-26T10:17:28.904Z,16.77
2023-04-26T10:22:34.325Z,16.96
2023-04-26T10:27:44.706Z,17.15
2023-04-26T10:32:51.901Z,17.05
2023-04-26T10:37:59.343Z,17.03
2023-04-26T10:43:12.966Z,17.13
2023-04-26T10:48:43.680Z,17.33
2023-04-26T10:53:47.943Z,17.20
2023-04-26T10:59:19.120Z,17.25
2023-04-26T11:04:51.761Z,17.03
2023-04-26T11:09:53.203Z,16.96
2023-04-26T11:14:54.637Z,16.96
2023-04-26T11:19:56.147Z,17.15
2023-04-26T11:25:00.530Z,17.22
2023-04-26T11:30:05.849Z,17.54
2023-04-26T11:35:07.649Z,17.87
2023-04-26T11:40:12.074Z,17.76
2023-04-26T11:45:15.968Z,17.84
2023-04-26T11:50:18.043Z,18.23
2023-04-26T11:55:24.306Z,18.51
2023-04-26T12:00:26.665Z,18.75
2023-04-26T12:05:29.730Z,18.27
2023-04-26T12:10:36.163Z,17.97
2023-04-26T12:15:38.972Z,17.65
2023-04-26T12:20:42.572Z,18.05
2023-04-26T12:25:54.941Z,17.42
2023-04-26T12:30:56.612Z,17.52
2023-04-26T12:35:58.404Z,17.95
2023-04-26T12:40:59.869Z,18.07
2023-04-26T12:46:01.509Z,18.25
2023-04-26T12:51:03.767Z,18.38
2023-04-26T12:56:05.608Z,18.06
2023-04-26T13:01:07.090Z,18.07
2023-04-26T13:06:09.047Z,18.24
2023-04-26T13:11:10.483Z,18.55
2023-04-26T13:16:12.991Z,18.55
2023-04-26T13:21:14.900Z,18.58
2023-04-26T13:26:18.709Z,18.14
2023-04-26T13:31:20.277Z,18.25
2023-04-26T13:36:21.845Z,18.31
2023-04-26T13:41:23.519Z,18.49
2023-04-26T13:46:25.126Z,18.73
2023-04-26T13:51:27.112Z,18.93
2023-04-26T13:56:28.637Z,18.76
2023-04-26T14:01:30.237Z,18.41
2023-04-26T14:06:31.849Z,18.44
2023-04-26T14:11:33.368Z,18.47
2023-04-26T14:16:35.018Z,18.11
2023-04-26T14:21:36.598Z,18.14
2023-04-26T14:26:38.102Z,18.05
2023-04-26T14:31:39.655Z,18.09
2023-04-26T14:36:41.217Z,18.28
2023-04-26T14:41:42.709Z,18.26
2023-04-26T14:46:44.332Z,18.28
2023-04-26T14:51:46.193Z,18.26
2023-04-26T14:56:47.985Z,18.15
2023-04-26T15:01:50.155Z,18.06
2023-04-26T15:06:51.687Z,18.37
2023-04-26T15:11:53.125Z,18.24
2023-04-26T15:16:54.615Z,18.29
2023-04-26T15:21:56.158Z,18.21
2023-04-26T15:26:57.654Z,18.15
2023-04-26T15:31:59.306Z,18.07
2023-04-26T15:37:00.816Z,17.94
2023-04-26T15:42:02.342Z,17.96
2023-04-26T15:47:03.949Z,17.90
2023-04-26T15:52:05.518Z,17.87
2023-04-26T15:57:06.996Z,17.76
2023-04-26T16:02:08.497Z,17.67
2023-04-26T16:07:09.950Z,17.50
2023-04-26T16:12:11.590Z,17.40
2023-04-26T16:17:13.313Z,17.37
2023-04-26T16:22:14.845Z,17.43
2023-04-26T16:27:16.421Z,17.42
2023-04-26T16:32:17.943Z,17.26
2023-04-26T16:37:19.409Z,17.26
2023-04-26T16:42:20.924Z,17.19
2023-04-26T16:47:22.476Z,17.26
2023-04-26T16:52:24.180Z,17.25
2023-04-26T16:57:25.627Z,17.25
2023-04-26T17:02:27.234Z,17.12
2023-04-26T17:07:28.778Z,17.13
2023-04-26T17:12:30.258Z,17.10
2023-04-26T17:17:31.778Z,17.10
2023-04-26T17:22:33.292Z,17.00
2023-04-26T17:27:34.736Z,17.03
2023-04-26T17:32:36.252Z,17.00
2023-04-26T17:37:37.719Z,17.02
2023-04-26T17:42:39.212Z,16.90
2023-04-26T17:47:40.924Z,16.89
2023-04-26T17:52:42.367Z,16.78
2023-04-26T17:57:43.914Z,16.66
2023-04-26T18:02:45.622Z,16.60
2023-04-26T18:07:48.394Z,16.60
2023-04-26T18:12:49.915Z,16.46
2023-04-26T18:17:51.440Z,16.40
2023-04-26T18:22:52.959Z,16.34
2023-04-26T18:27:54.415Z,16.28
2023-04-26T18:32:55.930Z,16.08
2023-04-26T18:37:57.527Z,16.05
2023-04-26T18:42:58.970Z,16.06
2023-04-26T18:48:00.481Z,15.94
2023-04-26T18:53:02.008Z,15.77
2023-04-26T18:58:03.528Z,15.80
2023-04-26T19:03:05.148Z,15.74
2023-04-26T19:08:06.763Z,15.69
2023-04-26T19:13:08.365Z,15.67
2023-04-26T19:18:09.957Z,15.65
2023-04-26T19:23:11.528Z,15.62
2023-04-26T19:28:13.307Z,15.57
2023-04-26T19:33:14.745Z,15.49
2023-04-26T19:38:16.199Z,15.42
2023-04-26T19:43:17.942Z,15.41
2023-04-26T19:48:19.443Z,15.41
2023-04-26T19:53:20.903Z,15.32
2023-04-26T19:58:22.393Z,15.21
2023-04-26T20:03:24.568Z,15.17
2023-04-26T20:08:26.247Z,15.21
2023-04-26T20:13:27.716Z,15.30
2023-04-26T20:18:29.254Z,15.13
2023-04-26T20:23:30.955Z,15.18
2023-04-26T20:28:32.438Z,15.08
2023-04-26T20:33:33.874Z,15.19
2023-04-26T20:38:35.327Z,15.15
2023-04-26T20:43:36.792Z,15.12
2023-04-26T20:48:38.282Z,15.00
2023-04-26T20:53:39.767Z,14.83
2023-04-26T20:58:41.352Z,14.81
2023-04-26T21:03:42.957Z,14.71
2023-04-26T21:08:44.580Z,14.77
2023-04-26T21:13:46.099Z,14.90
2023-04-26T21:18:47.571Z,14.86
2023-04-26T21:23:49.005Z,14.74
2023-04-26T21:28:50.654Z,14.83
2023-04-26T21:33:52.527Z,15.00
2023-04-26T21:38:54.020Z,15.03
2023-04-26T21:43:55.547Z,15.09
2023-04-26T21:48:56.978Z,15.02
2023-04-26T21:53:58.502Z,14.98
2023-04-26T21:58:59.977Z,14.88
2023-04-26T22:04:01.529Z,14.71
2023-04-26T22:09:03.129Z,14.82
2023-04-26T22:14:04.622Z,14.87
2023-04-26T22:19:06.127Z,14.86
2023-04-26T22:24:08.199Z,14.86
2023-04-26T22:29:09.901Z,14.87
2023-04-26T22:34:11.501Z,14.92
2023-04-26T22:39:14.500Z,14.99
2023-04-26T22:44:16.007Z,14.98
2023-04-26T22:49:17.544Z,15.04
2023-04-26T22:54:19.035Z,14.96
2023-04-26T22:59:20.526Z,15.00
2023-04-26T23:04:21.998Z,15.03
2023-04-26T23:09:23.500Z,15.06
2023-04-26T23:14:25.707Z,14.97
2023-04-26T23:19:27.158Z,14.78
2023-04-26T23:24:28.726Z,14.92
2023-04-26T23:29:30.242Z,14.75
2023-04-26T23:34:31.816Z,14.69
2023-04-26T23:39:33.269Z,14.54
2023-04-26T23:44:34.834Z,14.19
2023-04-26T23:49:36.348Z,14.23
2023-04-26T23:54:37.857Z,14.23
2023-04-26T23:59:39.453Z,14.36
